createdAt,value
2016-11-29T00:00:05.401Z,66.56
2016-11-29T00:00:27.114Z,66.40
2016-11-29T00:00:48.832Z,65.99
2016-11-29T00:01:10.557Z,65.66
2016-11-29T00:01:32.277Z,65.52
2016-11-29T00:01:53.989Z,65.57
2016-11-29T00:02:15.702Z,65.87
2016-11-29T00:02:37.419Z,66.31
2016-11-29T00:02:59.141Z,66.51
2016-11-29T00:03:20.859Z,66.16
2016-11-29T00:03:42.574Z,65.76
2016-11-29T00:04:04.289Z,65.49
2016-11-29T00:04:26.005Z,65.17
2016-11-29T00:04:47.735Z,64.96
2016-11-29T00:05:09.466Z,64.80
2016-11-29T00:05:31.184Z,64.70
2016-11-29T00:05:52.927Z,64.68
2016-11-29T00:06:14.627Z,64.61
2016-11-29T00:06:36.352Z,64.82
2016-11-29T00:06:58.071Z,65.19
2016-11-29T00:07:19.804Z,65.33
2016-11-29T00:07:41.531Z,65.24
2016-11-29T00:08:03.245Z,65.24
2016-11-29T00:08:24.993Z,65.49
2016-11-29T00:08:46.710Z,65.38
2016-11-29T00:09:08.452Z,65.33
2016-11-29T00:09:30.171Z,65.60
2016-11-29T00:09:51.891Z,66.02
2016-11-29T00:10:13.610Z,66.20
2016-11-29T00:10:35.332Z,66.26
2016-11-29T00:10:57.053Z,66.18
2016-11-29T00:11:18.766Z,65.89
2016-11-29T00:11:40.511Z,66.02
2016-11-29T00:12:02.231Z,66.17
2016-11-29T00:12:23.945Z,66.37
2016-11-29T00:12:45.664Z,66.41
2016-11-29T00:13:07.384Z,66.50
2016-11-29T00:13:29.107Z,66.49
2016-11-29T00:13:50.828Z,66.10
2016-11-29T00:14:12.547Z,66.06
2016-11-29T00:14:34.262Z,66.35
2016-11-29T00:14:55.984Z,66.54
2016-11-29T00:15:17.704Z,66.50
2016-11-29T00:15:39.422Z,66.61
2016-11-29T00:16:01.137Z,66.93
2016-11-29T00:16:22.856Z,67.30
2016-11-29T00:16:44.575Z,67.57
2016-11-29T00:17:06.294Z,67.66
2016-11-29T00:17:28.020Z,67.19
2016-11-29T00:17:49.736Z,66.84
2016-11-29T00:18:11.452Z,66.79
2016-11-29T00:18:33.163Z,66.78
2016-11-29T00:18:54.887Z,66.79
2016-11-29T00:19:16.610Z,66.90
2016-11-29T00:19:38.328Z,67.29
2016-11-29T00:20:00.045Z,67.55
2016-11-29T00:20:21.770Z,67.62
2016-11-29T00:20:43.488Z,67.19
2016-11-29T00:21:05.203Z,67.09
2016-11-29T00:21:26.929Z,67.04
2016-11-29T00:21:48.649Z,67.21
2016-11-29T00:22:10.368Z,67.08
2016-11-29T00:22:32.084Z,67.00
2016-11-29T00:22:53.806Z,67.22
2016-11-29T00:23:15.520Z,67.47
2016-11-29T00:23:37.304Z,67.76
2016-11-29T00:23:59.019Z,67.70
2016-11-29T00:24:20.734Z,67.56
2016-11-29T00:24:42.462Z,67.36
2016-11-29T00:25:04.189Z,67.44
2016-11-29T00:25:25.902Z,67.09
2016-11-29T00:25:47.624Z,66.85
2016-11-29T00:26:09.344Z,66.58
2016-11-29T00:26:31.059Z,66.53
2016-11-29T00:26:52.795Z,66.48
2016-11-29T00:27:16.597Z,66.67
2016-11-29T00:27:38.259Z,67.13
2016-11-29T00:27:59.978Z,66.85
2016-11-29T00:28:21.694Z,66.91
2016-11-29T00:28:43.420Z,66.92
2016-11-29T00:29:05.135Z,67.32
2016-11-29T00:29:26.858Z,67.79
2016-11-29T00:29:48.571Z,68.10
2016-11-29T00:30:10.286Z,68.23
2016-11-29T00:30:32.018Z,68.40
2016-11-29T00:30:53.740Z,68.55
2016-11-29T00:31:15.461Z,68.65
2016-11-29T00:31:37.180Z,68.45
2016-11-29T00:31:58.902Z,68.24
2016-11-29T00:32:20.618Z,68.14
2016-11-29T00:32:42.344Z,67.83
2016-11-29T00:33:04.060Z,67.60
2016-11-29T00:33:25.773Z,67.68
2016-11-29T00:33:47.491Z,67.77
2016-11-29T00:34:09.204Z,67.43
2016-11-29T00:34:30.925Z,67.00
2016-11-29T00:34:52.636Z,67.10
2016-11-29T00:35:14.360Z,67.24
2016-11-29T00:35:36.072Z,67.21
2016-11-29T00:35:57.799Z,67.26
2016-11-29T00:36:19.515Z,67.16
2016-11-29T00:36:41.233Z,67.37
2016-11-29T00:37:02.948Z,67.47
2016-11-29T00:37:24.667Z,67.45
2016-11-29T00:37:46.383Z,67.41
2016-11-29T00:38:08.106Z,67.28
2016-11-29T00:38:29.817Z,67.25
2016-11-29T00:38:51.530Z,66.90
2016-11-29T00:39:13.254Z,66.95
2016-11-29T00:39:34.986Z,67.02
2016-11-29T00:39:56.706Z,67.19
2016-11-29T00:40:18.422Z,66.78
2016-11-29T00:40:40.164Z,66.55
2016-11-29T00:41:01.879Z,66.54
2016-11-29T00:41:23.595Z,66.44
2016-11-29T00:41:48.284Z,66.39
2016-11-29T00:42:10.049Z,66.57
2016-11-29T00:42:31.762Z,66.66
2016-11-29T00:42:53.484Z,66.85
2016-11-29T00:43:15.199Z,67.03
2016-11-29T00:43:36.913Z,67.35
2016-11-29T00:43:58.633Z,67.64
2016-11-29T00:44:20.352Z,67.57
2016-11-29T00:44:42.073Z,67.08
2016-11-29T00:45:03.789Z,67.38
2016-11-29T00:45:25.506Z,67.53
2016-11-29T00:45:47.222Z,67.56
2016-11-29T00:46:08.941Z,67.33
2016-11-29T00:46:30.662Z,67.25
2016-11-29T00:46:52.379Z,67.04
2016-11-29T00:47:14.113Z,66.78
2016-11-29T00:47:35.849Z,66.70
2016-11-29T00:47:57.561Z,66.92
2016-11-29T00:48:19.293Z,67.19
2016-11-29T00:48:41.009Z,67.31
2016-11-29T00:49:02.737Z,67.49
2016-11-29T00:49:24.585Z,67.86
2016-11-29T00:49:46.298Z,68.11
2016-11-29T00:50:08.016Z,68.12
2016-11-29T00:50:29.748Z,68.21
2016-11-29T00:50:51.459Z,68.12
2016-11-29T00:51:13.175Z,68.16
2016-11-29T00:51:34.887Z,68.15
2016-11-29T00:51:56.604Z,68.07
2016-11-29T00:52:18.333Z,68.06
2016-11-29T00:52:40.040Z,68.09
2016-11-29T00:53:01.755Z,68.34
2016-11-29T00:53:23.473Z,68.52
2016-11-29T00:53:45.195Z,68.29
2016-11-29T00:54:07.036Z,68.32
2016-11-29T00:54:28.752Z,68.20
2016-11-29T00:54:50.467Z,67.83
2016-11-29T00:55:12.192Z,67.57
2016-11-29T00:55:33.908Z,67.38
2016-11-29T00:55:55.630Z,67.11
2016-11-29T00:56:17.346Z,67.42
2016-11-29T00:56:39.062Z,67.23
2016-11-29T00:57:00.786Z,66.96
2016-11-29T00:57:22.504Z,67.02
2016-11-29T00:57:44.219Z,66.96
2016-11-29T00:58:05.943Z,67.18
2016-11-29T00:58:27.683Z,67.63
2016-11-29T00:58:49.398Z,67.82
2016-11-29T00:59:11.123Z,68.18
2016-11-29T00:59:32.837Z,68.41
2016-11-29T00:59:54.555Z,68.50
2016-11-29T01:00:16.273Z,68.29
2016-11-29T01:00:37.996Z,67.85
2016-11-29T01:00:59.713Z,67.41
2016-11-29T01:01:21.427Z,67.18
2016-11-29T01:01:43.150Z,67.25
2016-11-29T01:02:04.866Z,67.46
2016-11-29T01:02:26.592Z,67.86
2016-11-29T01:02:48.310Z,67.78
2016-11-29T01:03:10.079Z,67.70
2016-11-29T01:03:31.807Z,67.68
2016-11-29T01:03:53.523Z,67.52
2016-11-29T01:04:15.237Z,67.55
2016-11-29T01:04:36.959Z,68.03
2016-11-29T01:04:58.674Z,68.38
2016-11-29T01:05:20.397Z,68.79
2016-11-29T01:05:42.132Z,68.96
2016-11-29T01:06:03.852Z,68.50
2016-11-29T01:06:25.580Z,68.32
2016-11-29T01:06:47.300Z,68.31
2016-11-29T01:07:09.021Z,68.42
2016-11-29T01:07:30.750Z,68.32
2016-11-29T01:07:52.551Z,68.21
2016-11-29T01:08:14.270Z,68.28
2016-11-29T01:08:35.988Z,67.83
2016-11-29T01:08:57.703Z,67.62
2016-11-29T01:09:19.419Z,67.71
2016-11-29T01:09:41.137Z,67.48
2016-11-29T01:10:02.854Z,67.26
2016-11-29T01:10:24.598Z,67.41
2016-11-29T01:10:46.294Z,67.68
2016-11-29T01:11:08.016Z,67.59
2016-11-29T01:11:29.734Z,67.41
2016-11-29T01:11:51.448Z,67.53
2016-11-29T01:12:13.167Z,67.69
2016-11-29T01:12:34.935Z,67.95
2016-11-29T01:12:56.659Z,68.29
2016-11-29T01:13:18.371Z,68.28
2016-11-29T01:13:40.090Z,68.41
2016-11-29T01:14:01.811Z,68.53
2016-11-29T01:14:23.565Z,68.91
2016-11-29T01:14:45.296Z,68.93
2016-11-29T01:15:07.016Z,69.13
2016-11-29T01:15:28.732Z,69.11
2016-11-29T01:15:50.449Z,69.33
2016-11-29T01:16:12.169Z,69.48
2016-11-29T01:16:33.888Z,69.52
2016-11-29T01:16:55.613Z,69.31
2016-11-29T01:17:17.407Z,69.39
2016-11-29T01:17:39.127Z,69.14
2016-11-29T01:18:00.848Z,68.94
2016-11-29T01:18:22.567Z,68.61
2016-11-29T01:18:44.278Z,68.50
2016-11-29T01:19:05.998Z,68.43
2016-11-29T01:19:27.733Z,68.72
2016-11-29T01:19:49.433Z,68.72
2016-11-29T01:20:11.349Z,69.12
2016-11-29T01:20:33.076Z,69.46
2016-11-29T01:20:54.792Z,69.76
2016-11-29T01:21:16.504Z,69.53
2016-11-29T01:21:38.259Z,69.44
2016-11-29T01:21:59.974Z,69.50
2016-11-29T01:22:21.689Z,69.20
2016-11-29T01:22:43.412Z,69.39
2016-11-29T01:23:05.130Z,69.25
2016-11-29T01:23:26.849Z,69.22
2016-11-29T01:23:48.564Z,69.28
2016-11-29T01:24:10.279Z,69.18
2016-11-29T01:24:31.993Z,69.07
2016-11-29T01:24:53.706Z,69.14
2016-11-29T01:25:15.423Z,69.15
2016-11-29T01:25:37.151Z,68.69
2016-11-29T01:25:58.865Z,68.42
2016-11-29T01:26:20.585Z,68.34
2016-11-29T01:26:42.304Z,68.11
2016-11-29T01:27:04.028Z,68.00
2016-11-29T01:27:25.744Z,67.87
2016-11-29T01:27:47.464Z,68.07
2016-11-29T01:28:09.188Z,68.21
2016-11-29T01:28:30.904Z,68.25
2016-11-29T01:28:52.629Z,67.89
2016-11-29T01:29:14.352Z,67.60
2016-11-29T01:29:36.061Z,67.56
2016-11-29T01:29:57.777Z,67.66
2016-11-29T01:30:19.507Z,67.89
2016-11-29T01:30:41.222Z,67.88
2016-11-29T01:31:02.940Z,67.77
2016-11-29T01:31:24.669Z,67.74
2016-11-29T01:31:46.382Z,67.95
2016-11-29T01:32:08.101Z,68.05
2016-11-29T01:32:29.829Z,67.74
2016-11-29T01:32:51.539Z,67.33
2016-11-29T01:33:13.261Z,67.32
2016-11-29T01:33:35.001Z,67.57
2016-11-29T01:33:56.717Z,67.38
2016-11-29T01:34:18.433Z,67.81
2016-11-29T01:34:40.145Z,67.90
2016-11-29T01:35:01.871Z,67.98
2016-11-29T01:35:23.585Z,68.26
2016-11-29T01:35:45.300Z,68.40
2016-11-29T01:36:07.032Z,68.51
2016-11-29T01:36:28.737Z,68.34
2016-11-29T01:36:50.452Z,68.20
2016-11-29T01:37:12.171Z,68.14
2016-11-29T01:37:33.887Z,68.00
2016-11-29T01:37:55.605Z,68.17
2016-11-29T01:38:17.335Z,68.48
2016-11-29T01:38:39.053Z,68.63
2016-11-29T01:39:00.764Z,68.68
2016-11-29T01:39:22.485Z,68.59
2016-11-29T01:39:44.205Z,68.59
2016-11-29T01:40:05.940Z,68.63
2016-11-29T01:40:27.658Z,68.51
2016-11-29T01:40:49.370Z,68.69
2016-11-29T01:41:11.098Z,69.04
2016-11-29T01:41:32.811Z,69.25
2016-11-29T01:41:54.524Z,69.32
2016-11-29T01:42:16.239Z,69.58
2016-11-29T01:42:37.975Z,69.76
2016-11-29T01:42:59.715Z,69.97
2016-11-29T01:43:21.430Z,70.02
2016-11-29T01:43:43.148Z,70.14
2016-11-29T01:44:04.878Z,70.15
2016-11-29T01:44:26.595Z,70.08
2016-11-29T01:44:48.317Z,69.96
2016-11-29T01:45:10.037Z,69.97
2016-11-29T01:45:31.756Z,70.21
2016-11-29T01:45:53.469Z,70.03
2016-11-29T01:46:15.188Z,69.66
2016-11-29T01:46:36.902Z,69.63
2016-11-29T01:47:01.290Z,69.75
2016-11-29T01:47:23.006Z,69.78
2016-11-29T01:47:44.723Z,69.84
2016-11-29T01:48:06.444Z,69.89
2016-11-29T01:48:28.157Z,70.13
2016-11-29T01:48:49.886Z,70.31
2016-11-29T01:49:11.601Z,70.37
2016-11-29T01:49:33.314Z,70.54
2016-11-29T01:49:55.032Z,70.26
2016-11-29T01:50:16.746Z,70.08
2016-11-29T01:50:38.476Z,69.98
2016-11-29T01:51:00.190Z,70.04
2016-11-29T01:51:21.905Z,70.08
2016-11-29T01:51:43.626Z,70.20
2016-11-29T01:52:05.347Z,70.29
2016-11-29T01:52:27.066Z,70.13
2016-11-29T01:52:48.784Z,69.70
2016-11-29T01:53:10.501Z,69.10
2016-11-29T01:53:32.221Z,69.20
2016-11-29T01:53:53.942Z,68.93
2016-11-29T01:54:15.668Z,68.67
2016-11-29T01:54:37.386Z,68.75
2016-11-29T01:54:59.115Z,69.19
2016-11-29T01:55:20.830Z,69.46
2016-11-29T01:55:42.547Z,69.67
2016-11-29T01:56:04.262Z,69.77
2016-11-29T01:56:26.122Z,70.05
2016-11-29T01:56:47.836Z,70.30
2016-11-29T01:57:09.569Z,70.57
2016-11-29T01:57:31.286Z,70.62
2016-11-29T01:57:52.998Z,70.75
2016-11-29T01:58:14.715Z,70.94
2016-11-29T01:58:36.429Z,71.10
2016-11-29T01:58:58.163Z,71.12
2016-11-29T01:59:19.881Z,70.96
2016-11-29T01:59:41.601Z,71.02
2016-11-29T02:00:03.326Z,71.07
2016-11-29T02:00:25.044Z,70.97
2016-11-29T02:00:46.760Z,71.00
2016-11-29T02:01:08.527Z,70.61
2016-11-29T02:01:30.247Z,70.24
2016-11-29T02:01:51.957Z,69.65
2016-11-29T02:02:13.675Z,69.08
2016-11-29T02:02:35.392Z,69.21
2016-11-29T02:02:57.115Z,69.35
2016-11-29T02:03:18.835Z,69.34
2016-11-29T02:03:40.552Z,69.44
2016-11-29T02:04:02.273Z,69.59
2016-11-29T02:04:24.009Z,69.88
2016-11-29T02:04:45.746Z,69.72
2016-11-29T02:05:07.460Z,69.34
2016-11-29T02:05:29.303Z,69.43
2016-11-29T02:05:51.024Z,69.74
2016-11-29T02:06:12.737Z,69.94
2016-11-29T02:06:34.446Z,69.79
2016-11-29T02:06:56.162Z,69.73
2016-11-29T02:07:17.882Z,69.64
2016-11-29T02:07:39.602Z,69.52
2016-11-29T02:08:01.317Z,69.61
2016-11-29T02:08:23.037Z,69.56
2016-11-29T02:08:44.757Z,69.34
2016-11-29T02:09:06.479Z,69.42
2016-11-29T02:09:28.208Z,69.69
2016-11-29T02:09:49.909Z,70.02
2016-11-29T02:10:11.757Z,70.20
2016-11-29T02:10:33.341Z,70.60
2016-11-29T02:10:55.060Z,70.66
2016-11-29T02:11:16.776Z,70.73
2016-11-29T02:11:38.493Z,70.92
2016-11-29T02:12:00.212Z,70.95
2016-11-29T02:12:21.926Z,70.62
2016-11-29T02:12:43.645Z,70.43
2016-11-29T02:13:05.362Z,69.98
2016-11-29T02:13:27.075Z,70.35
2016-11-29T02:13:48.800Z,70.75
2016-11-29T02:14:10.515Z,71.00
2016-11-29T02:14:32.234Z,70.80
2016-11-29T02:14:54.000Z,70.80
2016-11-29T02:15:15.713Z,70.83
2016-11-29T02:15:37.434Z,70.95
2016-11-29T02:15:59.166Z,70.67
2016-11-29T02:16:20.869Z,70.18
2016-11-29T02:16:42.585Z,70.05
2016-11-29T02:17:04.299Z,69.82
2016-11-29T02:17:26.052Z,69.81
2016-11-29T02:17:47.768Z,70.01
2016-11-29T02:18:09.490Z,70.01
2016-11-29T02:18:31.205Z,69.99
2016-11-29T02:18:52.920Z,70.12
2016-11-29T02:19:14.637Z,70.23
2016-11-29T02:19:36.469Z,70.13
2016-11-29T02:19:58.193Z,70.04
2016-11-29T02:20:19.918Z,70.16
2016-11-29T02:20:41.634Z,70.40
2016-11-29T02:21:03.358Z,70.63
2016-11-29T02:21:25.074Z,70.71
2016-11-29T02:21:46.785Z,70.99
2016-11-29T02:22:08.500Z,71.18
2016-11-29T02:22:30.223Z,71.21
2016-11-29T02:22:51.936Z,70.61
2016-11-29T02:23:13.649Z,70.19
2016-11-29T02:23:35.365Z,69.93
2016-11-29T02:23:57.084Z,69.90
2016-11-29T02:24:18.869Z,69.78
2016-11-29T02:24:40.587Z,70.06
2016-11-29T02:25:02.309Z,70.24
2016-11-29T02:25:24.028Z,70.08
2016-11-29T02:25:45.741Z,70.14
2016-11-29T02:26:07.461Z,70.09
2016-11-29T02:26:29.194Z,69.94
2016-11-29T02:26:50.916Z,69.76
2016-11-29T02:27:12.640Z,69.98
2016-11-29T02:27:34.365Z,70.31
2016-11-29T02:27:56.075Z,70.55
2016-11-29T02:28:17.792Z,70.45
2016-11-29T02:28:39.504Z,70.43
2016-11-29T02:29:01.346Z,70.41
2016-11-29T02:29:23.060Z,70.46
2016-11-29T02:29:44.772Z,70.66
2016-11-29T02:30:06.495Z,71.00
2016-11-29T02:30:28.207Z,71.28
2016-11-29T02:30:49.924Z,71.55
2016-11-29T02:31:11.642Z,71.79
2016-11-29T02:31:33.355Z,71.53
2016-11-29T02:31:55.075Z,71.31
2016-11-29T02:32:16.792Z,71.16
2016-11-29T02:32:38.508Z,70.97
2016-11-29T02:33:00.224Z,70.94
2016-11-29T02:33:21.951Z,70.77
2016-11-29T02:33:43.672Z,70.35
2016-11-29T02:34:05.390Z,69.99
2016-11-29T02:34:27.107Z,69.96
2016-11-29T02:34:48.820Z,70.45
2016-11-29T02:35:10.535Z,70.84
2016-11-29T02:35:32.249Z,71.18
2016-11-29T02:35:53.967Z,71.30
2016-11-29T02:36:15.678Z,71.55
2016-11-29T02:36:37.399Z,71.77
2016-11-29T02:36:59.112Z,71.82
2016-11-29T02:37:20.831Z,71.72
2016-11-29T02:37:42.545Z,71.73
2016-11-29T02:38:04.258Z,71.66
2016-11-29T02:38:26.044Z,71.39
2016-11-29T02:38:47.761Z,71.47
2016-11-29T02:39:09.474Z,71.55
2016-11-29T02:39:31.199Z,71.73
2016-11-29T02:39:52.917Z,71.72
2016-11-29T02:40:14.631Z,71.83
2016-11-29T02:40:36.372Z,71.90
2016-11-29T02:40:58.088Z,72.02
2016-11-29T02:41:19.810Z,72.20
2016-11-29T02:41:41.528Z,72.44
2016-11-29T02:42:03.244Z,72.42
2016-11-29T02:42:24.956Z,72.54
2016-11-29T02:42:46.679Z,72.68
2016-11-29T02:43:08.418Z,72.84
2016-11-29T02:43:30.129Z,72.88
2016-11-29T02:43:51.844Z,72.84
2016-11-29T02:44:13.559Z,72.63
2016-11-29T02:44:35.273Z,72.27
2016-11-29T02:44:56.991Z,71.80
2016-11-29T02:45:18.703Z,71.54
2016-11-29T02:45:40.427Z,71.59
2016-11-29T02:46:02.147Z,71.60
2016-11-29T02:46:23.866Z,71.69
2016-11-29T02:46:45.581Z,71.48
2016-11-29T02:47:07.296Z,71.52
2016-11-29T02:47:29.019Z,71.57
2016-11-29T02:47:50.746Z,71.44
2016-11-29T02:48:12.447Z,71.80
2016-11-29T02:48:34.171Z,71.25
2016-11-29T02:48:55.879Z,70.70
2016-11-29T02:49:17.597Z,70.71
2016-11-29T02:49:39.311Z,70.55
2016-11-29T02:50:01.034Z,70.25
2016-11-29T02:50:22.772Z,70.60
2016-11-29T02:50:44.490Z,71.03
2016-11-29T02:51:06.208Z,71.31
2016-11-29T02:51:27.920Z,71.07
2016-11-29T02:51:49.651Z,71.18
2016-11-29T02:52:11.374Z,71.35
2016-11-29T02:52:33.101Z,71.56
2016-11-29T02:52:54.870Z,71.72
2016-11-29T02:53:16.577Z,71.67
2016-11-29T02:53:38.287Z,71.52
2016-11-29T02:54:00.003Z,71.23
2016-11-29T02:54:21.718Z,71.18
2016-11-29T02:54:43.431Z,71.07
2016-11-29T02:55:05.151Z,71.36
2016-11-29T02:55:26.870Z,71.13
2016-11-29T02:55:48.588Z,71.29
2016-11-29T02:56:10.304Z,71.45
2016-11-29T02:56:32.022Z,71.79
2016-11-29T02:56:53.733Z,72.16
2016-11-29T02:57:15.451Z,71.84
2016-11-29T02:57:37.164Z,71.79
2016-11-29T02:57:58.877Z,71.38
2016-11-29T02:58:20.593Z,70.95
2016-11-29T02:58:42.312Z,70.98
2016-11-29T02:59:04.032Z,71.10
2016-11-29T02:59:25.775Z,71.36
2016-11-29T02:59:47.497Z,71.59
2016-11-29T03:00:09.215Z,71.78
2016-11-29T03:00:30.930Z,71.93
2016-11-29T03:00:52.653Z,72.21
2016-11-29T03:01:14.396Z,72.24
2016-11-29T03:01:36.118Z,72.23
2016-11-29T03:01:57.833Z,71.87
2016-11-29T03:02:19.550Z,72.17
2016-11-29T03:02:41.266Z,71.71
2016-11-29T03:03:02.990Z,71.41
2016-11-29T03:03:24.704Z,71.06
2016-11-29T03:03:46.421Z,70.79
2016-11-29T03:04:08.145Z,70.51
2016-11-29T03:04:29.861Z,70.79
2016-11-29T03:04:51.581Z,70.96
2016-11-29T03:05:13.291Z,71.01
2016-11-29T03:05:35.008Z,71.35
2016-11-29T03:05:56.729Z,71.57
2016-11-29T03:06:18.451Z,71.56
2016-11-29T03:06:40.166Z,71.42
2016-11-29T03:07:01.880Z,70.96
2016-11-29T03:07:23.593Z,70.77
2016-11-29T03:07:45.314Z,70.69
2016-11-29T03:08:07.034Z,71.07
2016-11-29T03:08:28.760Z,71.41
2016-11-29T03:08:50.472Z,71.33
2016-11-29T03:09:12.199Z,71.30
2016-11-29T03:09:33.913Z,71.43
2016-11-29T03:09:55.635Z,71.33
2016-11-29T03:10:17.351Z,71.43
2016-11-29T03:10:39.069Z,71.54
2016-11-29T03:11:00.792Z,71.57
2016-11-29T03:11:22.506Z,71.24
2016-11-29T03:11:44.230Z,71.19
2016-11-29T03:12:05.950Z,71.18
2016-11-29T03:12:27.683Z,71.04
2016-11-29T03:12:49.390Z,71.31
2016-11-29T03:13:11.105Z,71.06
2016-11-29T03:13:32.820Z,70.77
2016-11-29T03:13:54.543Z,70.60
2016-11-29T03:14:16.262Z,70.70
2016-11-29T03:14:37.977Z,71.07
2016-11-29T03:14:59.695Z,71.62
2016-11-29T03:15:21.405Z,72.03
2016-11-29T03:15:43.119Z,71.80
2016-11-29T03:16:04.838Z,71.27
2016-11-29T03:16:26.557Z,71.16
2016-11-29T03:16:48.274Z,71.14
2016-11-29T03:17:09.987Z,70.69
2016-11-29T03:17:31.710Z,70.81
2016-11-29T03:17:53.427Z,70.68
2016-11-29T03:18:15.145Z,70.99
2016-11-29T03:18:36.865Z,71.34
2016-11-29T03:18:58.572Z,71.25
2016-11-29T03:19:20.298Z,71.34
2016-11-29T03:19:42.008Z,71.21
2016-11-29T03:20:03.726Z,71.27
2016-11-29T03:20:25.439Z,71.25
2016-11-29T03:20:47.152Z,71.53
2016-11-29T03:21:08.868Z,71.95
2016-11-29T03:21:30.585Z,72.33
2016-11-29T03:21:52.301Z,72.36
2016-11-29T03:22:14.019Z,72.27
2016-11-29T03:22:35.733Z,71.91
2016-11-29T03:22:57.455Z,71.66
2016-11-29T03:23:19.169Z,71.41
2016-11-29T03:23:40.885Z,71.45
2016-11-29T03:24:02.598Z,71.51
2016-11-29T03:24:24.316Z,71.90
2016-11-29T03:24:46.041Z,72.16
2016-11-29T03:25:07.753Z,72.00
2016-11-29T03:25:29.473Z,71.83
2016-11-29T03:25:51.191Z,72.02
2016-11-29T03:26:12.912Z,72.33
2016-11-29T03:26:34.626Z,72.50
2016-11-29T03:26:56.342Z,72.12
2016-11-29T03:27:18.053Z,71.77
2016-11-29T03:27:39.768Z,71.59
2016-11-29T03:28:01.495Z,71.67
2016-11-29T03:28:23.207Z,71.72
2016-11-29T03:28:44.926Z,72.01
2016-11-29T03:29:06.642Z,71.93
2016-11-29T03:29:28.356Z,71.79
2016-11-29T03:29:50.072Z,71.30
2016-11-29T03:30:11.787Z,70.97
2016-11-29T03:30:33.502Z,70.77
2016-11-29T03:30:55.217Z,70.68
2016-11-29T03:31:16.946Z,70.42
2016-11-29T03:31:38.648Z,70.69
2016-11-29T03:32:00.367Z,71.15
2016-11-29T03:32:22.088Z,71.69
2016-11-29T03:32:43.813Z,72.04
2016-11-29T03:33:05.523Z,72.40
2016-11-29T03:33:27.241Z,72.74
2016-11-29T03:33:48.962Z,73.26
2016-11-29T03:34:10.687Z,73.63
2016-11-29T03:34:32.404Z,73.94
2016-11-29T03:34:54.132Z,74.07
2016-11-29T03:35:15.841Z,74.15
2016-11-29T03:35:37.557Z,73.97
2016-11-29T03:35:59.289Z,73.83
2016-11-29T03:36:21.004Z,73.27
2016-11-29T03:36:42.728Z,72.72
2016-11-29T03:37:04.446Z,72.67
2016-11-29T03:37:26.157Z,72.68
2016-11-29T03:37:47.875Z,72.70
2016-11-29T03:38:09.588Z,72.83
2016-11-29T03:38:31.301Z,72.84
2016-11-29T03:38:53.014Z,72.89
2016-11-29T03:39:14.730Z,72.74
2016-11-29T03:39:36.446Z,72.23
2016-11-29T03:39:58.162Z,71.94
2016-11-29T03:40:19.882Z,71.90
2016-11-29T03:40:41.600Z,71.81
2016-11-29T03:41:03.311Z,71.53
2016-11-29T03:41:25.052Z,71.67
2016-11-29T03:41:46.756Z,71.85
2016-11-29T03:42:08.469Z,71.86
2016-11-29T03:42:30.194Z,71.41
2016-11-29T03:42:51.914Z,71.23
2016-11-29T03:43:13.624Z,71.56
2016-11-29T03:43:35.350Z,71.73
2016-11-29T03:43:57.070Z,72.02
2016-11-29T03:44:18.792Z,72.14
2016-11-29T03:44:40.499Z,72.05
2016-11-29T03:45:02.213Z,71.85
2016-11-29T03:45:23.940Z,71.72
2016-11-29T03:45:45.653Z,71.66
2016-11-29T03:46:07.370Z,71.56
2016-11-29T03:46:29.084Z,71.20
2016-11-29T03:46:50.805Z,71.09
2016-11-29T03:47:12.523Z,71.29
2016-11-29T03:47:34.240Z,71.53
2016-11-29T03:47:55.954Z,71.47
2016-11-29T03:48:17.668Z,71.47
2016-11-29T03:48:39.381Z,71.46
2016-11-29T03:49:01.099Z,71.73
2016-11-29T03:49:22.852Z,71.99
2016-11-29T03:49:44.570Z,72.01
2016-11-29T03:50:06.287Z,71.47
2016-11-29T03:50:28.000Z,71.50
2016-11-29T03:50:49.725Z,71.69
2016-11-29T03:51:11.440Z,71.72
2016-11-29T03:51:33.168Z,71.61
2016-11-29T03:51:54.879Z,71.46
2016-11-29T03:52:16.589Z,71.09
2016-11-29T03:52:38.312Z,71.01
2016-11-29T03:53:00.039Z,71.37
2016-11-29T03:53:21.774Z,71.58
2016-11-29T03:53:43.492Z,71.63
2016-11-29T03:54:05.208Z,71.85
2016-11-29T03:54:26.927Z,72.02
2016-11-29T03:54:48.643Z,72.10
2016-11-29T03:55:10.364Z,71.95
2016-11-29T03:55:32.077Z,71.67
2016-11-29T03:55:53.798Z,71.74
2016-11-29T03:56:15.515Z,71.81
2016-11-29T03:56:37.240Z,71.90
2016-11-29T03:56:58.955Z,72.06
2016-11-29T03:57:20.668Z,72.32
2016-11-29T03:57:42.390Z,72.53
2016-11-29T03:58:04.120Z,72.63
2016-11-29T03:58:25.832Z,72.51
2016-11-29T03:58:47.554Z,72.21
2016-11-29T03:59:09.267Z,72.42
2016-11-29T03:59:30.984Z,72.52
2016-11-29T03:59:52.699Z,72.41
2016-11-29T04:00:14.416Z,72.06
2016-11-29T04:00:36.128Z,71.72
2016-11-29T04:00:57.875Z,71.88
2016-11-29T04:01:19.593Z,71.95
2016-11-29T04:01:41.315Z,72.15
2016-11-29T04:02:03.032Z,72.32
2016-11-29T04:02:24.749Z,72.20
2016-11-29T04:02:46.482Z,72.17
2016-11-29T04:03:08.199Z,72.36
2016-11-29T04:03:29.916Z,72.45
2016-11-29T04:03:51.632Z,72.35
2016-11-29T04:04:13.351Z,72.58
2016-11-29T04:04:35.068Z,72.50
2016-11-29T04:04:56.780Z,72.21
2016-11-29T04:05:18.496Z,71.88
2016-11-29T04:05:40.215Z,72.11
2016-11-29T04:06:01.934Z,72.20
2016-11-29T04:06:23.649Z,72.12
2016-11-29T04:06:45.362Z,72.14
2016-11-29T04:07:07.078Z,71.71
2016-11-29T04:07:28.810Z,71.72
2016-11-29T04:07:50.529Z,71.44
2016-11-29T04:08:12.248Z,71.12
2016-11-29T04:08:33.966Z,71.26
2016-11-29T04:08:55.685Z,71.58
2016-11-29T04:09:17.409Z,71.71
2016-11-29T04:09:39.145Z,72.18
2016-11-29T04:10:00.874Z,72.50
2016-11-29T04:10:22.579Z,72.50
2016-11-29T04:10:44.294Z,72.06
2016-11-29T04:11:06.014Z,71.86
2016-11-29T04:11:27.732Z,71.70
2016-11-29T04:11:49.449Z,71.93
2016-11-29T04:12:11.164Z,72.09
2016-11-29T04:12:32.888Z,72.30
2016-11-29T04:12:54.604Z,72.69
2016-11-29T04:13:16.320Z,73.13
2016-11-29T04:13:38.053Z,73.41
2016-11-29T04:13:59.773Z,73.50
2016-11-29T04:14:21.488Z,72.96
2016-11-29T04:14:43.208Z,72.84
2016-11-29T04:15:04.933Z,72.86
2016-11-29T04:15:26.647Z,72.94
2016-11-29T04:15:48.373Z,72.98
2016-11-29T04:16:10.093Z,72.97
2016-11-29T04:16:31.806Z,73.09
2016-11-29T04:16:53.531Z,73.23
2016-11-29T04:17:15.247Z,73.23
2016-11-29T04:17:36.961Z,73.07
2016-11-29T04:17:58.682Z,73.07
2016-11-29T04:18:20.394Z,72.84
2016-11-29T04:18:42.116Z,72.82
2016-11-29T04:19:03.825Z,72.96
2016-11-29T04:19:25.537Z,72.37
2016-11-29T04:19:47.261Z,71.84
2016-11-29T04:20:08.980Z,71.72
2016-11-29T04:20:30.695Z,71.90
2016-11-29T04:20:52.411Z,72.12
2016-11-29T04:21:14.124Z,72.31
2016-11-29T04:21:35.861Z,72.09
2016-11-29T04:21:57.572Z,71.79
2016-11-29T04:22:19.291Z,71.72
2016-11-29T04:22:41.005Z,71.82
2016-11-29T04:23:02.729Z,71.96
2016-11-29T04:23:24.437Z,72.28
2016-11-29T04:23:46.156Z,72.58
2016-11-29T04:24:07.870Z,72.60
2016-11-29T04:24:29.587Z,72.75
2016-11-29T04:24:51.307Z,72.89
2016-11-29T04:25:13.021Z,73.00
2016-11-29T04:25:34.749Z,72.60
2016-11-29T04:25:56.461Z,72.11
2016-11-29T04:26:18.176Z,72.08
2016-11-29T04:26:39.892Z,72.04
2016-11-29T04:27:01.618Z,72.11
2016-11-29T04:27:23.324Z,72.32
2016-11-29T04:27:45.037Z,72.12
2016-11-29T04:28:06.748Z,71.98
2016-11-29T04:28:28.467Z,71.99
2016-11-29T04:28:50.192Z,72.16
2016-11-29T04:29:11.914Z,72.15
2016-11-29T04:29:33.632Z,72.02
2016-11-29T04:29:55.361Z,72.14
2016-11-29T04:30:17.078Z,71.88
2016-11-29T04:30:38.815Z,72.00
2016-11-29T04:31:00.507Z,72.18
2016-11-29T04:31:22.235Z,72.44
2016-11-29T04:31:43.951Z,72.45
2016-11-29T04:32:05.665Z,72.50
2016-11-29T04:32:27.379Z,72.21
2016-11-29T04:32:49.095Z,72.16
2016-11-29T04:33:10.806Z,72.00
2016-11-29T04:33:32.527Z,71.93
2016-11-29T04:33:54.246Z,71.96
2016-11-29T04:34:15.965Z,72.07
2016-11-29T04:34:37.679Z,72.38
2016-11-29T04:34:59.397Z,72.70
2016-11-29T04:35:21.122Z,72.97
2016-11-29T04:35:42.842Z,73.00
2016-11-29T04:36:04.556Z,72.62
2016-11-29T04:36:26.272Z,72.48
2016-11-29T04:36:47.995Z,72.57
2016-11-29T04:37:09.712Z,72.64
2016-11-29T04:37:31.428Z,72.70
2016-11-29T04:37:53.146Z,72.40
2016-11-29T04:38:14.862Z,72.32
2016-11-29T04:38:36.578Z,72.59
2016-11-29T04:38:58.294Z,72.78
2016-11-29T04:39:20.015Z,72.49
2016-11-29T04:39:41.729Z,72.39